sensor_id;sensor_type;location;lat;lon;timestamp;P1;durP1;ratioP1;P2;durP2;ratioP2
78648;SDS011;67962;47.310;9.642;2023-03-21T00:00:57;3.85;;;1.70;;
78648;SDS011;67962;47.310;9.642;2023-03-21T00:03:24;4.78;;;1.50;;
78648;SDS011;67962;47.310;9.642;2023-03-21T00:05:51;6.25;;;2.35;;
78648;SDS011;67962;47.310;9.642;2023-03-21T00:08:20;3.60;;;1.77;;
78648;SDS011;67962;47.310;9.642;2023-03-21T00:10:54;2.38;;;1.60;;
78648;SDS011;67962;47.310;9.642;2023-03-21T00:13:21;4.40;;;1.60;;
78648;SDS011;67962;47.310;9.642;2023-03-21T00:15:46;4.50;;;1.70;;
78648;SDS011;67962;47.310;9.642;2023-03-21T00:18:18;2.83;;;1.60;;
78648;SDS011;67962;47.310;9.642;2023-03-21T00:20:54;3.72;;;1.50;;
78648;SDS011;67962;47.310;9.642;2023-03-21T00:23:22;5.20;;;1.73;;
78648;SDS011;67962;47.310;9.642;2023-03-21T00:25:49;4.85;;;1.55;;
78648;SDS011;67962;47.310;9.642;2023-03-21T00:28:14;2.03;;;1.38;;
78648;SDS011;67962;47.310;9.642;2023-03-21T00:30:40;3.30;;;1.45;;
78648;SDS011;67962;47.310;9.642;2023-03-21T00:33:06;2.95;;;1.35;;
78648;SDS011;67962;47.310;9.642;2023-03-21T00:35:31;3.67;;;1.52;;
78648;SDS011;67962;47.310;9.642;2023-03-21T00:37:57;4.75;;;1.60;;
78648;SDS011;67962;47.310;9.642;2023-03-21T00:40:23;2.50;;;1.40;;
78648;SDS011;67962;47.310;9.642;2023-03-21T00:42:49;2.45;;;1.40;;
78648;SDS011;67962;47.310;9.642;2023-03-21T00:45:15;3.20;;;1.60;;
78648;SDS011;67962;47.310;9.642;2023-03-21T00:47:43;6.03;;;1.70;;
78648;SDS011;67962;47.310;9.642;2023-03-21T00:50:09;6.63;;;1.63;;
78648;SDS011;67962;47.310;9.642;2023-03-21T00:52:36;1.98;;;1.23;;
78648;SDS011;67962;47.310;9.642;2023-03-21T00:55:03;2.50;;;1.70;;
78648;SDS011;67962;47.310;9.642;2023-03-21T00:57:30;3.05;;;1.40;;
78648;SDS011;67962;47.310;9.642;2023-03-21T00:59:55;2.55;;;1.55;;
78648;SDS011;67962;47.310;9.642;2023-03-21T01:02:23;2.75;;;1.30;;
78648;SDS011;67962;47.310;9.642;2023-03-21T01:04:51;2.75;;;1.40;;
78648;SDS011;67962;47.310;9.642;2023-03-21T01:07:20;6.60;;;1.83;;
78648;SDS011;67962;47.310;9.642;2023-03-21T01:09:46;3.53;;;1.90;;
78648;SDS011;67962;47.310;9.642;2023-03-21T01:12:11;3.30;;;2.35;;
78648;SDS011;67962;47.310;9.642;2023-03-21T01:14:37;4.40;;;1.90;;
78648;SDS011;67962;47.310;9.642;2023-03-21T01:17:03;2.90;;;1.58;;
78648;SDS011;67962;47.310;9.642;2023-03-21T01:19:29;3.63;;;2.00;;
78648;SDS011;67962;47.310;9.642;2023-03-21T01:21:55;3.65;;;1.70;;
78648;SDS011;67962;47.310;9.642;2023-03-21T01:24:21;5.57;;;2.35;;
78648;SDS011;67962;47.310;9.642;2023-03-21T01:26:47;8.50;;;3.15;;
78648;SDS011;67962;47.310;9.642;2023-03-21T01:29:13;7.18;;;3.15;;
78648;SDS011;67962;47.310;9.642;2023-03-21T01:31:39;16.95;;;5.47;;
78648;SDS011;67962;47.310;9.642;2023-03-21T01:34:05;9.95;;;4.28;;
78648;SDS011;67962;47.310;9.642;2023-03-21T01:36:30;9.85;;;4.32;;
78648;SDS011;67962;47.310;9.642;2023-03-21T01:38:57;9.20;;;4.22;;
78648;SDS011;67962;47.310;9.642;2023-03-21T01:41:33;6.43;;;3.60;;
78648;SDS011;67962;47.310;9.642;2023-03-21T01:44:00;5.88;;;3.10;;
78648;SDS011;67962;47.310;9.642;2023-03-21T01:46:28;6.20;;;2.53;;
78648;SDS011;67962;47.310;9.642;2023-03-21T01:51:36;5.63;;;2.60;;
78648;SDS011;67962;47.310;9.642;2023-03-21T01:54:05;3.25;;;2.20;;
78648;SDS011;67962;47.310;9.642;2023-03-21T01:56:35;5.13;;;2.60;;
78648;SDS011;67962;47.310;9.642;2023-03-21T01:59:10;4.60;;;2.30;;
78648;SDS011;67962;47.310;9.642;2023-03-21T02:01:38;3.47;;;1.85;;
78648;SDS011;67962;47.310;9.642;2023-03-21T02:04:06;5.05;;;2.35;;
78648;SDS011;67962;47.310;9.642;2023-03-21T02:06:41;6.13;;;2.28;;
78648;SDS011;67962;47.310;9.642;2023-03-21T02:09:13;4.80;;;2.00;;
78648;SDS011;67962;47.310;9.642;2023-03-21T02:11:44;3.72;;;2.28;;
78648;SDS011;67962;47.310;9.642;2023-03-21T02:14:15;5.72;;;1.90;;
78648;SDS011;67962;47.310;9.642;2023-03-21T02:22:15;3.08;;;1.60;;
78648;SDS011;67962;47.310;9.642;2023-03-21T02:27:50;6.88;;;1.90;;
78648;SDS011;67962;47.310;9.642;2023-03-21T02:41:49;10.85;;;3.60;;
78648;SDS011;67962;47.310;9.642;2023-03-21T02:52:15;7.15;;;3.70;;
78648;SDS011;67962;47.310;9.642;2023-03-21T02:54:44;8.77;;;3.95;;
78648;SDS011;67962;47.310;9.642;2023-03-21T02:57:12;7.15;;;2.80;;
78648;SDS011;67962;47.310;9.642;2023-03-21T02:59:40;7.53;;;2.72;;
78648;SDS011;67962;47.310;9.642;2023-03-21T03:02:07;3.75;;;2.20;;
78648;SDS011;67962;47.310;9.642;2023-03-21T03:04:33;3.80;;;1.90;;
78648;SDS011;67962;47.310;9.642;2023-03-21T03:12:10;3.63;;;1.80;;
78648;SDS011;67962;47.310;9.642;2023-03-21T03:14:51;6.30;;;2.25;;
78648;SDS011;67962;47.310;9.642;2023-03-21T03:28:24;4.63;;;1.50;;
78648;SDS011;67962;47.310;9.642;2023-03-21T03:30:54;3.83;;;1.65;;
78648;SDS011;67962;47.310;9.642;2023-03-21T03:33:23;2.45;;;1.50;;
78648;SDS011;67962;47.310;9.642;2023-03-21T03:35:51;5.00;;;1.40;;
78648;SDS011;67962;47.310;9.642;2023-03-21T03:38:20;2.65;;;1.80;;
78648;SDS011;67962;47.310;9.642;2023-03-21T03:40:50;4.40;;;1.80;;
78648;SDS011;67962;47.310;9.642;2023-03-21T03:43:25;6.22;;;1.67;;
78648;SDS011;67962;47.310;9.642;2023-03-21T03:45:59;2.05;;;1.52;;
78648;SDS011;67962;47.310;9.642;2023-03-21T03:48:45;2.15;;;1.48;;
78648;SDS011;67962;47.310;9.642;2023-03-21T03:51:20;2.95;;;1.60;;
78648;SDS011;67962;47.310;9.642;2023-03-21T03:54:04;7.97;;;1.63;;
78648;SDS011;67962;47.310;9.642;2023-03-21T03:56:34;3.65;;;1.45;;
78648;SDS011;67962;47.310;9.642;2023-03-21T03:59:00;3.75;;;1.40;;
78648;SDS011;67962;47.310;9.642;2023-03-21T04:01:28;2.33;;;1.48;;
78648;SDS011;67962;47.310;9.642;2023-03-21T04:03:54;2.42;;;1.38;;
78648;SDS011;67962;47.310;9.642;2023-03-21T04:06:20;5.47;;;1.48;;
78648;SDS011;67962;47.310;9.642;2023-03-21T04:08:46;1.75;;;1.17;;
78648;SDS011;67962;47.310;9.642;2023-03-21T04:11:13;1.92;;;1.30;;
78648;SDS011;67962;47.310;9.642;2023-03-21T04:13:40;2.08;;;1.60;;
78648;SDS011;67962;47.310;9.642;2023-03-21T04:16:06;3.50;;;1.50;;
78648;SDS011;67962;47.310;9.642;2023-03-21T04:18:33;3.92;;;1.30;;
78648;SDS011;67962;47.310;9.642;2023-03-21T04:20:58;5.80;;;1.63;;
78648;SDS011;67962;47.310;9.642;2023-03-21T04:23:25;2.15;;;1.33;;
78648;SDS011;67962;47.310;9.642;2023-03-21T04:25:53;2.03;;;1.58;;
78648;SDS011;67962;47.310;9.642;2023-03-21T04:28:19;3.13;;;1.80;;
78648;SDS011;67962;47.310;9.642;2023-03-21T04:30:46;8.93;;;1.70;;
78648;SDS011;67962;47.310;9.642;2023-03-21T04:33:13;2.90;;;1.58;;
78648;SDS011;67962;47.310;9.642;2023-03-21T04:35:39;1.90;;;1.52;;
78648;SDS011;67962;47.310;9.642;2023-03-21T04:38:06;5.15;;;1.60;;
78648;SDS011;67962;47.310;9.642;2023-03-21T04:40:32;4.22;;;1.73;;
78648;SDS011;67962;47.310;9.642;2023-03-21T04:42:58;2.28;;;1.70;;
78648;SDS011;67962;47.310;9.642;2023-03-21T04:45:25;3.15;;;1.67;;
78648;SDS011;67962;47.310;9.642;2023-03-21T04:47:51;11.27;;;2.35;;
78648;SDS011;67962;47.310;9.642;2023-03-21T04:50:16;2.97;;;1.70;;
78648;SDS011;67962;47.310;9.642;2023-03-21T04:52:42;2.72;;;1.73;;
78648;SDS011;67962;47.310;9.642;2023-03-21T04:55:08;3.33;;;1.90;;
78648;SDS011;67962;47.310;9.642;2023-03-21T04:57:38;2.60;;;1.60;;
78648;SDS011;67962;47.310;9.642;2023-03-21T05:00:04;3.90;;;1.77;;
78648;SDS011;67962;47.310;9.642;2023-03-21T05:02:34;3.25;;;2.00;;
78648;SDS011;67962;47.310;9.642;2023-03-21T05:05:00;9.38;;;1.92;;
78648;SDS011;67962;47.310;9.642;2023-03-21T05:07:26;6.45;;;1.80;;
78648;SDS011;67962;47.310;9.642;2023-03-21T05:09:52;6.65;;;1.88;;
78648;SDS011;67962;47.310;9.642;2023-03-21T05:12:18;6.50;;;1.85;;
78648;SDS011;67962;47.310;9.642;2023-03-21T05:14:44;4.25;;;1.63;;
78648;SDS011;67962;47.310;9.642;2023-03-21T05:17:10;1.85;;;1.52;;
78648;SDS011;67962;47.310;9.642;2023-03-21T05:19:47;6.30;;;1.80;;
78648;SDS011;67962;47.310;9.642;2023-03-21T05:22:14;3.60;;;1.42;;
78648;SDS011;67962;47.310;9.642;2023-03-21T05:24:43;2.67;;;1.40;;
78648;SDS011;67962;47.310;9.642;2023-03-21T05:27:17;3.67;;;1.92;;
78648;SDS011;67962;47.310;9.642;2023-03-21T05:29:58;4.57;;;1.70;;
78648;SDS011;67962;47.310;9.642;2023-03-21T05:32:42;4.05;;;1.88;;
78648;SDS011;67962;47.310;9.642;2023-03-21T05:35:08;4.70;;;1.95;;
78648;SDS011;67962;47.310;9.642;2023-03-21T05:37:34;3.47;;;1.83;;
78648;SDS011;67962;47.310;9.642;2023-03-21T05:40:00;6.47;;;1.92;;
78648;SDS011;67962;47.310;9.642;2023-03-21T05:42:27;5.18;;;1.92;;
78648;SDS011;67962;47.310;9.642;2023-03-21T05:44:53;3.22;;;1.67;;
78648;SDS011;67962;47.310;9.642;2023-03-21T05:47:19;7.63;;;1.90;;
78648;SDS011;67962;47.310;9.642;2023-03-21T05:49:45;6.20;;;1.77;;
78648;SDS011;67962;47.310;9.642;2023-03-21T05:52:11;8.00;;;1.70;;
78648;SDS011;67962;47.310;9.642;2023-03-21T05:54:37;4.88;;;1.70;;
78648;SDS011;67962;47.310;9.642;2023-03-21T05:57:03;6.68;;;2.13;;
78648;SDS011;67962;47.310;9.642;2023-03-21T05:59:29;7.38;;;2.65;;
78648;SDS011;67962;47.310;9.642;2023-03-21T06:01:55;5.90;;;2.15;;
78648;SDS011;67962;47.310;9.642;2023-03-21T06:04:21;5.82;;;2.40;;
78648;SDS011;67962;47.310;9.642;2023-03-21T06:06:46;6.53;;;2.60;;
78648;SDS011;67962;47.310;9.642;2023-03-21T06:09:12;11.90;;;2.80;;
78648;SDS011;67962;47.310;9.642;2023-03-21T06:11:38;8.25;;;2.70;;
78648;SDS011;67962;47.310;9.642;2023-03-21T06:14:08;8.60;;;2.90;;
78648;SDS011;67962;47.310;9.642;2023-03-21T06:16:34;6.60;;;3.35;;
78648;SDS011;67962;47.310;9.642;2023-03-21T06:18:59;4.15;;;3.10;;
78648;SDS011;67962;47.310;9.642;2023-03-21T06:21:25;5.45;;;3.10;;
78648;SDS011;67962;47.310;9.642;2023-03-21T06:23:51;7.50;;;3.25;;
78648;SDS011;67962;47.310;9.642;2023-03-21T06:26:18;6.93;;;2.70;;
78648;SDS011;67962;47.310;9.642;2023-03-21T06:28:47;5.32;;;2.90;;
78648;SDS011;67962;47.310;9.642;2023-03-21T06:31:13;11.18;;;3.20;;
78648;SDS011;67962;47.310;9.642;2023-03-21T06:33:39;9.82;;;3.22;;
78648;SDS011;67962;47.310;9.642;2023-03-21T06:36:05;4.88;;;2.78;;
78648;SDS011;67962;47.310;9.642;2023-03-21T06:38:31;6.63;;;3.03;;
78648;SDS011;67962;47.310;9.642;2023-03-21T06:40:57;4.82;;;2.70;;
78648;SDS011;67962;47.310;9.642;2023-03-21T06:43:23;6.63;;;2.47;;
78648;SDS011;67962;47.310;9.642;2023-03-21T06:45:48;6.50;;;2.65;;
78648;SDS011;67962;47.310;9.642;2023-03-21T06:48:14;7.50;;;2.92;;
78648;SDS011;67962;47.310;9.642;2023-03-21T06:50:40;8.85;;;3.35;;
78648;SDS011;67962;47.310;9.642;2023-03-21T06:53:06;6.47;;;3.67;;
78648;SDS011;67962;47.310;9.642;2023-03-21T06:55:32;8.45;;;2.28;;
78648;SDS011;67962;47.310;9.642;2023-03-21T06:57:57;7.03;;;2.63;;
78648;SDS011;67962;47.310;9.642;2023-03-21T07:00:23;7.70;;;3.08;;
78648;SDS011;67962;47.310;9.642;2023-03-21T07:02:49;7.35;;;3.53;;
78648;SDS011;67962;47.310;9.642;2023-03-21T07:05:15;7.53;;;2.88;;
78648;SDS011;67962;47.310;9.642;2023-03-21T07:07:41;4.72;;;2.50;;
78648;SDS011;67962;47.310;9.642;2023-03-21T07:10:07;10.77;;;2.15;;
78648;SDS011;67962;47.310;9.642;2023-03-21T07:12:34;7.38;;;1.80;;
78648;SDS011;67962;47.310;9.642;2023-03-21T07:15:00;4.50;;;1.70;;
78648;SDS011;67962;47.310;9.642;2023-03-21T07:17:27;4.95;;;1.60;;
78648;SDS011;67962;47.310;9.642;2023-03-21T07:19:52;3.88;;;1.70;;
78648;SDS011;67962;47.310;9.642;2023-03-21T07:22:18;8.07;;;1.70;;
78648;SDS011;67962;47.310;9.642;2023-03-21T07:24:44;8.27;;;1.80;;
78648;SDS011;67962;47.310;9.642;2023-03-21T07:27:16;4.22;;;1.40;;
78648;SDS011;67962;47.310;9.642;2023-03-21T07:29:42;5.68;;;1.42;;
78648;SDS011;67962;47.310;9.642;2023-03-21T07:32:11;4.32;;;1.75;;
78648;SDS011;67962;47.310;9.642;2023-03-21T07:34:37;7.90;;;1.52;;
78648;SDS011;67962;47.310;9.642;2023-03-21T07:37:03;5.25;;;1.48;;
78648;SDS011;67962;47.310;9.642;2023-03-21T07:39:31;4.22;;;1.40;;
78648;SDS011;67962;47.310;9.642;2023-03-21T07:41:57;2.30;;;1.20;;
78648;SDS011;67962;47.310;9.642;2023-03-21T07:44:23;5.82;;;1.20;;
78648;SDS011;67962;47.310;9.642;2023-03-21T07:46:49;3.97;;;1.23;;
78648;SDS011;67962;47.310;9.642;2023-03-21T07:49:15;3.28;;;1.58;;
78648;SDS011;67962;47.310;9.642;2023-03-21T07:51:41;6.43;;;1.50;;
78648;SDS011;67962;47.310;9.642;2023-03-21T07:54:07;4.75;;;1.70;;
78648;SDS011;67962;47.310;9.642;2023-03-21T07:56:33;6.13;;;1.33;;
78648;SDS011;67962;47.310;9.642;2023-03-21T07:58:58;5.30;;;2.08;;
78648;SDS011;67962;47.310;9.642;2023-03-21T08:01:24;5.63;;;2.05;;
78648;SDS011;67962;47.310;9.642;2023-03-21T08:03:50;6.40;;;2.17;;
78648;SDS011;67962;47.310;9.642;2023-03-21T08:06:20;5.82;;;1.77;;
78648;SDS011;67962;47.310;9.642;2023-03-21T08:08:47;7.45;;;2.05;;
78648;SDS011;67962;47.310;9.642;2023-03-21T08:11:13;5.50;;;1.45;;
78648;SDS011;67962;47.310;9.642;2023-03-21T08:13:39;6.72;;;1.92;;
78648;SDS011;67962;47.310;9.642;2023-03-21T08:16:06;3.42;;;1.80;;
78648;SDS011;67962;47.310;9.642;2023-03-21T08:18:32;7.55;;;1.70;;
78648;SDS011;67962;47.310;9.642;2023-03-21T08:20:58;3.83;;;1.70;;
78648;SDS011;67962;47.310;9.642;2023-03-21T08:23:24;2.92;;;1.50;;
78648;SDS011;67962;47.310;9.642;2023-03-21T08:25:53;4.72;;;1.50;;
78648;SDS011;67962;47.310;9.642;2023-03-21T08:28:20;4.10;;;1.52;;
78648;SDS011;67962;47.310;9.642;2023-03-21T08:30:47;5.05;;;1.35;;
78648;SDS011;67962;47.310;9.642;2023-03-21T08:33:14;4.55;;;1.70;;
78648;SDS011;67962;47.310;9.642;2023-03-21T08:35:42;2.60;;;1.48;;
78648;SDS011;67962;47.310;9.642;2023-03-21T08:38:08;5.07;;;1.70;;
78648;SDS011;67962;47.310;9.642;2023-03-21T08:40:34;4.18;;;1.50;;
78648;SDS011;67962;47.310;9.642;2023-03-21T08:43:00;4.07;;;1.70;;
78648;SDS011;67962;47.310;9.642;2023-03-21T08:45:26;4.25;;;1.70;;
78648;SDS011;67962;47.310;9.642;2023-03-21T08:47:52;3.28;;;1.52;;
78648;SDS011;67962;47.310;9.642;2023-03-21T08:50:20;1.92;;;1.30;;
78648;SDS011;67962;47.310;9.642;2023-03-21T08:52:47;2.45;;;1.20;;
78648;SDS011;67962;47.310;9.642;2023-03-21T08:55:14;3.00;;;1.40;;
78648;SDS011;67962;47.310;9.642;2023-03-21T08:57:42;3.35;;;1.55;;
78648;SDS011;67962;47.310;9.642;2023-03-21T09:00:09;2.75;;;1.50;;
78648;SDS011;67962;47.310;9.642;2023-03-21T09:02:41;2.10;;;1.20;;
78648;SDS011;67962;47.310;9.642;2023-03-21T09:05:09;4.45;;;1.40;;
78648;SDS011;67962;47.310;9.642;2023-03-21T09:07:36;3.97;;;1.30;;
78648;SDS011;67962;47.310;9.642;2023-03-21T09:10:07;4.53;;;1.30;;
78648;SDS011;67962;47.310;9.642;2023-03-21T09:12:38;2.58;;;1.17;;
78648;SDS011;67962;47.310;9.642;2023-03-21T09:15:06;2.25;;;1.20;;
78648;SDS011;67962;47.310;9.642;2023-03-21T09:17:33;4.38;;;1.20;;
78648;SDS011;67962;47.310;9.642;2023-03-21T09:19:58;3.78;;;1.40;;
78648;SDS011;67962;47.310;9.642;2023-03-21T09:22:29;1.88;;;1.17;;
78648;SDS011;67962;47.310;9.642;2023-03-21T09:24:54;4.05;;;1.10;;
78648;SDS011;67962;47.310;9.642;2023-03-21T09:27:21;6.78;;;1.30;;
78648;SDS011;67962;47.310;9.642;2023-03-21T09:29:48;4.65;;;1.10;;
78648;SDS011;67962;47.310;9.642;2023-03-21T09:32:14;3.85;;;1.20;;
78648;SDS011;67962;47.310;9.642;2023-03-21T09:34:39;1.88;;;1.30;;
78648;SDS011;67962;47.310;9.642;2023-03-21T09:37:06;3.90;;;1.50;;
78648;SDS011;67962;47.310;9.642;2023-03-21T09:39:40;4.00;;;1.30;;
78648;SDS011;67962;47.310;9.642;2023-03-21T09:42:20;4.95;;;1.80;;
78648;SDS011;67962;47.310;9.642;2023-03-21T09:45:05;5.65;;;1.30;;
78648;SDS011;67962;47.310;9.642;2023-03-21T09:47:43;3.88;;;1.30;;
78648;SDS011;67962;47.310;9.642;2023-03-21T09:50:19;3.55;;;1.35;;
78648;SDS011;67962;47.310;9.642;2023-03-21T09:55:26;3.03;;;1.20;;
78648;SDS011;67962;47.310;9.642;2023-03-21T10:00:23;6.13;;;1.25;;
78648;SDS011;67962;47.310;9.642;2023-03-21T10:02:54;2.55;;;1.08;;
78648;SDS011;67962;47.310;9.642;2023-03-21T10:05:24;3.28;;;1.15;;
78648;SDS011;67962;47.310;9.642;2023-03-21T10:10:49;4.97;;;1.20;;
78648;SDS011;67962;47.310;9.642;2023-03-21T10:13:27;4.28;;;1.50;;
78648;SDS011;67962;47.310;9.642;2023-03-21T10:15:57;13.88;;;1.20;;
78648;SDS011;67962;47.310;9.642;2023-03-21T10:18:26;2.67;;;1.10;;
78648;SDS011;67962;47.310;9.642;2023-03-21T10:20:55;2.40;;;1.00;;
78648;SDS011;67962;47.310;9.642;2023-03-21T10:23:21;1.67;;;0.90;;
78648;SDS011;67962;47.310;9.642;2023-03-21T10:25:54;5.63;;;1.00;;
78648;SDS011;67962;47.310;9.642;2023-03-21T10:28:27;1.98;;;0.82;;
78648;SDS011;67962;47.310;9.642;2023-03-21T10:31:00;3.97;;;1.20;;
78648;SDS011;67962;47.310;9.642;2023-03-21T10:33:33;12.93;;;1.10;;
78648;SDS011;67962;47.310;9.642;2023-03-21T10:36:02;1.35;;;1.00;;
78648;SDS011;67962;47.310;9.642;2023-03-21T10:38:31;3.17;;;0.90;;
78648;SDS011;67962;47.310;9.642;2023-03-21T10:40:57;2.53;;;1.10;;
78648;SDS011;67962;47.310;9.642;2023-03-21T10:45:52;2.47;;;1.00;;
78648;SDS011;67962;47.310;9.642;2023-03-21T10:48:19;3.35;;;0.80;;
78648;SDS011;67962;47.310;9.642;2023-03-21T10:50:48;8.65;;;1.10;;
78648;SDS011;67962;47.310;9.642;2023-03-21T10:53:18;4.45;;;0.98;;
78648;SDS011;67962;47.310;9.642;2023-03-21T10:55:47;2.08;;;0.88;;
78648;SDS011;67962;47.310;9.642;2023-03-21T10:58:17;4.60;;;1.00;;
78648;SDS011;67962;47.310;9.642;2023-03-21T11:00:49;4.90;;;1.08;;
78648;SDS011;67962;47.310;9.642;2023-03-21T11:05:55;2.15;;;1.23;;
78648;SDS011;67962;47.310;9.642;2023-03-21T11:08:35;2.42;;;1.10;;
78648;SDS011;67962;47.310;9.642;2023-03-21T11:11:10;4.35;;;1.40;;
78648;SDS011;67962;47.310;9.642;2023-03-21T11:13:46;2.58;;;1.20;;
78648;SDS011;67962;47.310;9.642;2023-03-21T11:16:23;3.60;;;1.23;;
78648;SDS011;67962;47.310;9.642;2023-03-21T11:18:55;1.98;;;1.30;;
78648;SDS011;67962;47.310;9.642;2023-03-21T11:21:24;7.70;;;1.17;;
78648;SDS011;67962;47.310;9.642;2023-03-21T11:23:52;4.53;;;1.08;;
78648;SDS011;67962;47.310;9.642;2023-03-21T11:28:54;5.28;;;1.13;;
78648;SDS011;67962;47.310;9.642;2023-03-21T11:31:21;1.98;;;1.00;;
78648;SDS011;67962;47.310;9.642;2023-03-21T11:33:52;2.17;;;1.27;;
78648;SDS011;67962;47.310;9.642;2023-03-21T11:38:47;2.88;;;1.45;;
78648;SDS011;67962;47.310;9.642;2023-03-21T11:41:28;1.98;;;1.20;;
78648;SDS011;67962;47.310;9.642;2023-03-21T11:43:58;4.43;;;1.38;;
78648;SDS011;67962;47.310;9.642;2023-03-21T11:46:28;7.93;;;1.70;;
78648;SDS011;67962;47.310;9.642;2023-03-21T11:48:56;3.58;;;1.80;;
78648;SDS011;67962;47.310;9.642;2023-03-21T11:57:16;4.13;;;1.80;;
78648;SDS011;67962;47.310;9.642;2023-03-21T12:00:03;6.18;;;1.77;;
78648;SDS011;67962;47.310;9.642;2023-03-21T12:16:02;3.15;;;2.35;;
78648;SDS011;67962;47.310;9.642;2023-03-21T12:24:22;3.35;;;2.40;;
78648;SDS011;67962;47.310;9.642;2023-03-21T12:27:10;3.63;;;2.97;;
78648;SDS011;67962;47.310;9.642;2023-03-21T12:30:12;7.30;;;3.20;;
78648;SDS011;67962;47.310;9.642;2023-03-21T12:32:52;6.32;;;2.90;;
78648;SDS011;67962;47.310;9.642;2023-03-21T12:46:26;4.70;;;3.10;;
78648;SDS011;67962;47.310;9.642;2023-03-21T12:51:43;4.18;;;2.85;;
78648;SDS011;67962;47.310;9.642;2023-03-21T12:54:14;6.35;;;2.70;;
78648;SDS011;67962;47.310;9.642;2023-03-21T13:02:19;4.65;;;2.80;;
78648;SDS011;67962;47.310;9.642;2023-03-21T13:05:03;4.25;;;2.60;;
78648;SDS011;67962;47.310;9.642;2023-03-21T13:07:56;3.38;;;2.92;;
78648;SDS011;67962;47.310;9.642;2023-03-21T13:10:23;4.07;;;2.63;;
78648;SDS011;67962;47.310;9.642;2023-03-21T13:24:04;5.00;;;2.30;;
78648;SDS011;67962;47.310;9.642;2023-03-21T13:26:48;5.03;;;2.07;;
78648;SDS011;67962;47.310;9.642;2023-03-21T13:29:31;3.10;;;1.90;;
78648;SDS011;67962;47.310;9.642;2023-03-21T13:32:05;2.25;;;1.58;;
78648;SDS011;67962;47.310;9.642;2023-03-21T13:34:41;3.55;;;1.90;;
78648;SDS011;67962;47.310;9.642;2023-03-21T13:37:13;2.72;;;1.70;;
78648;SDS011;67962;47.310;9.642;2023-03-21T13:39:43;4.70;;;1.73;;
78648;SDS011;67962;47.310;9.642;2023-03-21T13:42:16;3.92;;;1.90;;
78648;SDS011;67962;47.310;9.642;2023-03-21T13:44:54;2.05;;;1.58;;
78648;SDS011;67962;47.310;9.642;2023-03-21T13:47:34;2.17;;;1.58;;
78648;SDS011;67962;47.310;9.642;2023-03-21T13:55:44;3.15;;;1.77;;
78648;SDS011;67962;47.310;9.642;2023-03-21T14:01:12;3.88;;;2.00;;
78648;SDS011;67962;47.310;9.642;2023-03-21T14:03:57;3.92;;;1.55;;
78648;SDS011;67962;47.310;9.642;2023-03-21T14:06:56;3.05;;;2.00;;
78648;SDS011;67962;47.310;9.642;2023-03-21T14:09:40;3.67;;;2.00;;
78648;SDS011;67962;47.310;9.642;2023-03-21T14:12:18;3.50;;;2.03;;
78648;SDS011;67962;47.310;9.642;2023-03-21T14:14:52;2.25;;;1.88;;
78648;SDS011;67962;47.310;9.642;2023-03-21T14:17:31;8.55;;;2.00;;
78648;SDS011;67962;47.310;9.642;2023-03-21T14:22:37;3.13;;;1.77;;
78648;SDS011;67962;47.310;9.642;2023-03-21T14:25:06;4.18;;;2.30;;
78648;SDS011;67962;47.310;9.642;2023-03-21T14:27:40;4.13;;;2.30;;
78648;SDS011;67962;47.310;9.642;2023-03-21T14:30:18;3.67;;;2.20;;
78648;SDS011;67962;47.310;9.642;2023-03-21T14:32:58;4.63;;;2.35;;
78648;SDS011;67962;47.310;9.642;2023-03-21T14:35:44;6.38;;;2.30;;
78648;SDS011;67962;47.310;9.642;2023-03-21T14:38:19;5.45;;;2.17;;
78648;SDS011;67962;47.310;9.642;2023-03-21T14:40:48;6.40;;;2.20;;
78648;SDS011;67962;47.310;9.642;2023-03-21T14:43:17;4.38;;;2.60;;
78648;SDS011;67962;47.310;9.642;2023-03-21T14:45:46;5.15;;;2.15;;
78648;SDS011;67962;47.310;9.642;2023-03-21T14:48:14;4.70;;;2.10;;
78648;SDS011;67962;47.310;9.642;2023-03-21T14:53:14;4.35;;;2.10;;
78648;SDS011;67962;47.310;9.642;2023-03-21T14:55:59;4.55;;;2.40;;
78648;SDS011;67962;47.310;9.642;2023-03-21T14:58:26;2.20;;;1.80;;
78648;SDS011;67962;47.310;9.642;2023-03-21T15:00:53;4.03;;;1.90;;
78648;SDS011;67962;47.310;9.642;2023-03-21T15:03:24;2.60;;;2.10;;
78648;SDS011;67962;47.310;9.642;2023-03-21T15:05:52;3.53;;;1.98;;
78648;SDS011;67962;47.310;9.642;2023-03-21T15:08:20;4.63;;;2.08;;
78648;SDS011;67962;47.310;9.642;2023-03-21T15:13:21;3.22;;;1.70;;
78648;SDS011;67962;47.310;9.642;2023-03-21T15:15:50;3.30;;;2.08;;
78648;SDS011;67962;47.310;9.642;2023-03-21T15:18:29;3.67;;;2.00;;
78648;SDS011;67962;47.310;9.642;2023-03-21T15:20:57;4.07;;;2.40;;
78648;SDS011;67962;47.310;9.642;2023-03-21T15:23:37;3.33;;;2.28;;
78648;SDS011;67962;47.310;9.642;2023-03-21T15:26:06;4.55;;;2.40;;
78648;SDS011;67962;47.310;9.642;2023-03-21T15:28:37;4.75;;;2.63;;
78648;SDS011;67962;47.310;9.642;2023-03-21T15:31:02;7.63;;;3.00;;
78648;SDS011;67962;47.310;9.642;2023-03-21T15:33:30;7.03;;;3.47;;
78648;SDS011;67962;47.310;9.642;2023-03-21T15:35:59;6.97;;;3.22;;
78648;SDS011;67962;47.310;9.642;2023-03-21T15:38:33;4.88;;;2.92;;
78648;SDS011;67962;47.310;9.642;2023-03-21T15:43:53;6.47;;;3.47;;
78648;SDS011;67962;47.310;9.642;2023-03-21T15:46:44;6.38;;;3.22;;
78648;SDS011;67962;47.310;9.642;2023-03-21T15:54:16;7.43;;;3.83;;
78648;SDS011;67962;47.310;9.642;2023-03-21T15:56:48;13.65;;;3.75;;
78648;SDS011;67962;47.310;9.642;2023-03-21T15:59:18;7.32;;;3.60;;
78648;SDS011;67962;47.310;9.642;2023-03-21T16:01:48;7.18;;;3.25;;
78648;SDS011;67962;47.310;9.642;2023-03-21T16:04:14;6.65;;;3.70;;
78648;SDS011;67962;47.310;9.642;2023-03-21T16:07:02;8.23;;;3.58;;
78648;SDS011;67962;47.310;9.642;2023-03-21T16:09:43;7.38;;;3.25;;
78648;SDS011;67962;47.310;9.642;2023-03-21T16:12:12;9.38;;;3.50;;
78648;SDS011;67962;47.310;9.642;2023-03-21T16:14:39;6.45;;;3.97;;
78648;SDS011;67962;47.310;9.642;2023-03-21T16:17:16;7.38;;;4.55;;
78648;SDS011;67962;47.310;9.642;2023-03-21T16:19:58;6.55;;;4.07;;
78648;SDS011;67962;47.310;9.642;2023-03-21T16:22:25;7.43;;;4.18;;
78648;SDS011;67962;47.310;9.642;2023-03-21T16:24:52;6.20;;;3.92;;
78648;SDS011;67962;47.310;9.642;2023-03-21T16:27:18;8.13;;;4.60;;
78648;SDS011;67962;47.310;9.642;2023-03-21T16:29:45;11.15;;;4.70;;
78648;SDS011;67962;47.310;9.642;2023-03-21T16:32:14;8.27;;;4.90;;
78648;SDS011;67962;47.310;9.642;2023-03-21T16:34:42;5.97;;;4.30;;
78648;SDS011;67962;47.310;9.642;2023-03-21T16:37:10;5.65;;;4.30;;
78648;SDS011;67962;47.310;9.642;2023-03-21T16:39:37;8.55;;;5.10;;
78648;SDS011;67962;47.310;9.642;2023-03-21T16:42:02;8.63;;;4.93;;
78648;SDS011;67962;47.310;9.642;2023-03-21T16:44:28;6.60;;;4.50;;
78648;SDS011;67962;47.310;9.642;2023-03-21T16:46:54;7.95;;;4.65;;
78648;SDS011;67962;47.310;9.642;2023-03-21T16:49:23;7.82;;;4.43;;
78648;SDS011;67962;47.310;9.642;2023-03-21T16:51:51;9.00;;;5.00;;
78648;SDS011;67962;47.310;9.642;2023-03-21T16:54:19;13.40;;;5.22;;
78648;SDS011;67962;47.310;9.642;2023-03-21T16:56:46;10.43;;;4.70;;
78648;SDS011;67962;47.310;9.642;2023-03-21T16:59:14;7.80;;;4.97;;
78648;SDS011;67962;47.310;9.642;2023-03-21T17:01:40;8.45;;;5.20;;
78648;SDS011;67962;47.310;9.642;2023-03-21T17:04:10;14.82;;;4.70;;
78648;SDS011;67962;47.310;9.642;2023-03-21T17:06:47;8.40;;;4.60;;
78648;SDS011;67962;47.310;9.642;2023-03-21T17:09:15;7.10;;;4.22;;
78648;SDS011;67962;47.310;9.642;2023-03-21T17:11:43;6.95;;;4.55;;
78648;SDS011;67962;47.310;9.642;2023-03-21T17:14:09;9.98;;;4.93;;
78648;SDS011;67962;47.310;9.642;2023-03-21T17:16:36;7.55;;;4.40;;
78648;SDS011;67962;47.310;9.642;2023-03-21T17:19:17;8.35;;;4.90;;
78648;SDS011;67962;47.310;9.642;2023-03-21T17:21:46;13.30;;;4.78;;
78648;SDS011;67962;47.310;9.642;2023-03-21T17:24:12;11.30;;;4.15;;
78648;SDS011;67962;47.310;9.642;2023-03-21T17:26:38;7.82;;;4.63;;